FIN1VE EFHK-EFKS
Flight info
| Callsign | FIN1VE |
|---|---|
| Flight time | 1h 4m |
| Altitude | 37000 |
| Route | IDEPI Y232 ADOPO DCT UGLUM/N0428F380 T95 ETROD/N0420F370 DCT IXUBI DCT IBEVU |
| Aircraft | E190/M-SDE2E3FGIJ1RWXY/SB1 |
Departure
| Time | 2026-05-04 07:57 |
|---|---|
| Airport | Helsinki Vantaa Airport (EFHK) |
Arrival
| Time | 2026-05-04 09:01 |
|---|---|
| Airport | Kuusamo Airport (EFKS) |
| Time | Latitude | Longitude | Altitude | Speed | Heading |
|---|---|---|---|---|---|
| 2026-05-04 07:34 | 60.31824 | 24.97041 | 165 ft | 0 kts | 243° |
| 2026-05-04 07:49 | 60.31827 | 24.97192 | 165 ft | 0 kts | 333° |
| 2026-05-04 07:50 | 60.31833 | 24.97186 | 165 ft | 2 kts | 333° |
| 2026-05-04 07:51 | 60.31853 | 24.97165 | 165 ft | 4 kts | 332° |
| 2026-05-04 07:51 | 60.31888 | 24.97128 | 165 ft | 7 kts | 332° |
| 2026-05-04 07:51 | 60.31937 | 24.97077 | 165 ft | 9 kts | 334° |
| 2026-05-04 07:51 | 60.32000 | 24.97012 | 165 ft | 11 kts | 332° |
| 2026-05-04 07:52 | 60.32075 | 24.96935 | 165 ft | 13 kts | 331° |
| 2026-05-04 07:52 | 60.32159 | 24.96834 | 165 ft | 16 kts | 329° |
| 2026-05-04 07:52 | 60.32260 | 24.96716 | 165 ft | 17 kts | 329° |
| 2026-05-04 07:52 | 60.32364 | 24.96595 | 171 ft | 17 kts | 329° |
| 2026-05-04 07:53 | 60.32474 | 24.96469 | 172 ft | 20 kts | 329° |
| 2026-05-04 07:54 | 60.33163 | 24.95284 | 177 ft | 19 kts | 224° |
| 2026-05-04 07:55 | 60.33108 | 24.95039 | 177 ft | 20 kts | 269° |
| 2026-05-04 07:55 | 60.33113 | 24.94754 | 181 ft | 20 kts | 271° |
| 2026-05-04 07:55 | 60.33120 | 24.94508 | 188 ft | 14 kts | 272° |
| 2026-05-04 07:55 | 60.33102 | 24.94362 | 203 ft | 10 kts | 228° |
| 2026-05-04 07:56 | 60.33090 | 24.94334 | 192 ft | 13 kts | 227° |
| 2026-05-04 07:56 | 60.32875 | 24.93867 | 182 ft | 81 kts | 228° |
| 2026-05-04 07:56 | 60.32341 | 24.92689 | 172 ft | 144 kts | 228° |
| 2026-05-04 07:56 | 60.31636 | 24.91127 | 744 ft | 150 kts | 227° |
| 2026-05-04 07:57 | 60.30919 | 24.89551 | 1527 ft | 152 kts | 227° |
| 2026-05-04 07:57 | 60.30305 | 24.87771 | 2150 ft | 158 kts | 243° |
| 2026-05-04 07:57 | 60.30025 | 24.85613 | 2701 ft | 166 kts | 268° |
| 2026-05-04 07:57 | 60.30290 | 24.83292 | 3233 ft | 176 kts | 294° |
| 2026-05-04 07:58 | 60.30963 | 24.81232 | 3924 ft | 175 kts | 299° |
| 2026-05-04 07:58 | 60.31649 | 24.79097 | 4286 ft | 194 kts | 297° |
| 2026-05-04 07:58 | 60.32413 | 24.76571 | 4437 ft | 225 kts | 293° |
| 2026-05-04 07:58 | 60.33089 | 24.73587 | 4926 ft | 240 kts | 290° |
| 2026-05-04 07:59 | 60.33800 | 24.70516 | 5720 ft | 244 kts | 292° |
| 2026-05-04 07:59 | 60.34618 | 24.67425 | 6180 ft | 263 kts | 301° |
| 2026-05-04 07:59 | 60.36077 | 24.65009 | 6687 ft | 284 kts | 332° |
| 2026-05-04 07:59 | 60.38055 | 24.64312 | 7363 ft | 297 kts | 1° |
| 2026-05-04 08:00 | 60.40039 | 24.65585 | 8031 ft | 305 kts | 27° |
| 2026-05-04 08:00 | 60.41828 | 24.67930 | 8717 ft | 309 kts | 35° |
| 2026-05-04 08:00 | 60.43572 | 24.70540 | 9392 ft | 314 kts | 36° |
| 2026-05-04 08:02 | 60.52408 | 24.96140 | 12839 ft | 369 kts | 67° |
| 2026-05-04 08:02 | 60.53489 | 25.00843 | 13428 ft | 376 kts | 66° |
| 2026-05-04 08:02 | 60.54599 | 25.05689 | 14016 ft | 380 kts | 66° |
| 2026-05-04 08:03 | 60.55720 | 25.10581 | 14615 ft | 384 kts | 66° |
| 2026-05-04 08:03 | 60.56849 | 25.15535 | 15215 ft | 388 kts | 66° |
| 2026-05-04 08:03 | 60.57987 | 25.20543 | 15787 ft | 392 kts | 66° |
| 2026-05-04 08:03 | 60.59132 | 25.25597 | 16376 ft | 396 kts | 66° |
| 2026-05-04 08:04 | 60.60287 | 25.30720 | 16956 ft | 401 kts | 66° |
| 2026-05-04 08:04 | 60.61453 | 25.35907 | 17531 ft | 405 kts | 66° |
| 2026-05-04 08:04 | 60.62630 | 25.41166 | 18124 ft | 410 kts | 66° |
| 2026-05-04 08:04 | 60.63815 | 25.46472 | 18691 ft | 413 kts | 66° |
| 2026-05-04 08:05 | 60.65005 | 25.51826 | 19293 ft | 416 kts | 66° |
| 2026-05-04 08:05 | 60.65797 | 25.55395 | 19693 ft | 418 kts | 66° |
| 2026-05-04 08:05 | 60.66996 | 25.60822 | 20273 ft | 422 kts | 66° |
| 2026-05-04 08:05 | 60.68202 | 25.66309 | 20811 ft | 426 kts | 66° |
| 2026-05-04 08:06 | 60.69416 | 25.71848 | 21312 ft | 430 kts | 66° |
| 2026-05-04 08:06 | 60.70679 | 25.77415 | 21781 ft | 433 kts | 60° |
| 2026-05-04 08:06 | 60.72540 | 25.82206 | 22255 ft | 430 kts | 37° |
| 2026-05-04 08:06 | 60.74970 | 25.85720 | 22741 ft | 428 kts | 27° |
| 2026-05-04 08:08 | 60.92685 | 26.10286 | 25781 ft | 448 kts | 29° |
| 2026-05-04 08:08 | 60.95255 | 26.13934 | 26148 ft | 450 kts | 29° |
| 2026-05-04 08:10 | 61.16188 | 26.44141 | 28825 ft | 469 kts | 29° |
| 2026-05-04 08:11 | 61.18848 | 26.48065 | 29153 ft | 471 kts | 29° |
| 2026-05-04 08:11 | 61.24204 | 26.55994 | 29828 ft | 472 kts | 29° |
| 2026-05-04 08:11 | 61.26893 | 26.59984 | 29973 ft | 477 kts | 29° |
| 2026-05-04 08:12 | 61.29595 | 26.64003 | 30236 ft | 478 kts | 29° |
| 2026-05-04 08:12 | 61.32293 | 26.68026 | 30526 ft | 478 kts | 29° |
| 2026-05-04 08:12 | 61.35009 | 26.72081 | 30652 ft | 481 kts | 29° |
| 2026-05-04 08:12 | 61.37731 | 26.76157 | 30908 ft | 482 kts | 29° |
| 2026-05-04 08:13 | 61.40450 | 26.80237 | 31213 ft | 481 kts | 28° |
| 2026-05-04 08:13 | 61.43344 | 26.83596 | 31203 ft | 469 kts | 10° |
| 2026-05-04 08:13 | 61.46449 | 26.85101 | 31441 ft | 453 kts | 359° |
| 2026-05-04 08:13 | 61.49557 | 26.86116 | 31751 ft | 452 kts | 359° |
| 2026-05-04 08:14 | 61.52659 | 26.87213 | 32059 ft | 451 kts | 360° |
| 2026-05-04 08:14 | 61.55749 | 26.88330 | 32370 ft | 450 kts | 360° |
| 2026-05-04 08:14 | 61.58830 | 26.89467 | 32698 ft | 449 kts | 360° |
| 2026-05-04 08:16 | 61.80167 | 26.97561 | 34637 ft | 445 kts | 1° |
| 2026-05-04 08:16 | 61.83209 | 26.98735 | 34944 ft | 444 kts | 1° |
| 2026-05-04 08:16 | 61.86249 | 26.99911 | 35252 ft | 444 kts | 1° |
| 2026-05-04 08:17 | 61.89284 | 27.01084 | 35540 ft | 443 kts | 1° |
| 2026-05-04 08:17 | 61.92278 | 27.02243 | 35814 ft | 443 kts | 1° |
| 2026-05-04 08:17 | 61.95312 | 27.03417 | 36065 ft | 443 kts | 2° |
| 2026-05-04 08:17 | 61.98387 | 27.04608 | 36337 ft | 443 kts | 2° |
| 2026-05-04 08:19 | 62.19275 | 27.12720 | 36737 ft | 434 kts | 2° |
| 2026-05-04 08:19 | 62.22250 | 27.13885 | 36737 ft | 434 kts | 2° |
| 2026-05-04 08:20 | 62.28196 | 27.16222 | 36709 ft | 437 kts | 2° |
| 2026-05-04 08:20 | 62.34185 | 27.18585 | 36714 ft | 437 kts | 2° |
| 2026-05-04 08:21 | 62.40157 | 27.20956 | 36731 ft | 437 kts | 2° |
| 2026-05-04 08:21 | 62.46138 | 27.23336 | 36733 ft | 437 kts | 2° |
| 2026-05-04 08:22 | 62.52116 | 27.25726 | 36737 ft | 437 kts | 2° |
| 2026-05-04 08:24 | 62.76038 | 27.35386 | 36738 ft | 437 kts | 2° |
| 2026-05-04 08:24 | 62.82022 | 27.37828 | 36740 ft | 437 kts | 2° |
| 2026-05-04 08:25 | 62.88005 | 27.40280 | 36745 ft | 437 kts | 2° |
| 2026-05-04 08:25 | 62.93985 | 27.42741 | 36747 ft | 437 kts | 2° |
| 2026-05-04 08:27 | 63.17830 | 27.52655 | 36729 ft | 437 kts | 2° |
| 2026-05-04 08:28 | 63.23806 | 27.55166 | 36747 ft | 438 kts | 3° |
| 2026-05-04 08:28 | 63.29819 | 27.57705 | 36734 ft | 440 kts | 3° |
| 2026-05-04 08:29 | 63.35832 | 27.60249 | 36748 ft | 440 kts | 3° |
| 2026-05-04 08:31 | 63.59922 | 27.68590 | 36736 ft | 437 kts | 0° |
| 2026-05-04 08:33 | 63.83930 | 27.76409 | 36752 ft | 436 kts | 0° |
| 2026-05-04 08:35 | 64.07767 | 27.88191 | 36748 ft | 443 kts | 9° |
| 2026-05-04 08:35 | 64.13700 | 27.92048 | 36749 ft | 443 kts | 8° |
| 2026-05-04 08:37 | 64.34522 | 28.05663 | 36441 ft | 451 kts | 9° |
| 2026-05-04 08:38 | 64.40478 | 28.09609 | 36203 ft | 444 kts | 8° |
| 2026-05-04 08:38 | 64.46421 | 28.13552 | 35914 ft | 445 kts | 8° |
| 2026-05-04 08:40 | 64.67439 | 28.27170 | 31406 ft | 454 kts | 6° |
| 2026-05-04 08:40 | 64.70499 | 28.29155 | 30639 ft | 454 kts | 6° |
| 2026-05-04 08:40 | 64.73523 | 28.31147 | 29990 ft | 451 kts | 6° |
| 2026-05-04 08:41 | 64.76542 | 28.33124 | 29361 ft | 449 kts | 6° |
| 2026-05-04 08:41 | 64.79546 | 28.35095 | 28791 ft | 448 kts | 6° |
| 2026-05-04 08:41 | 64.82538 | 28.37062 | 28187 ft | 445 kts | 6° |
| 2026-05-04 08:41 | 64.85501 | 28.39020 | 27584 ft | 441 kts | 6° |
| 2026-05-04 08:42 | 64.88437 | 28.40963 | 27029 ft | 434 kts | 6° |
| 2026-05-04 08:42 | 64.91326 | 28.42880 | 26446 ft | 429 kts | 6° |
| 2026-05-04 08:42 | 64.94187 | 28.44778 | 25885 ft | 426 kts | 6° |
| 2026-05-04 08:42 | 64.97034 | 28.46670 | 25310 ft | 423 kts | 6° |
| 2026-05-04 08:43 | 64.99854 | 28.48548 | 24767 ft | 420 kts | 6° |
| 2026-05-04 08:43 | 65.02620 | 28.50394 | 24225 ft | 417 kts | 7° |
| 2026-05-04 08:43 | 65.05404 | 28.52255 | 23649 ft | 415 kts | 7° |
| 2026-05-04 08:43 | 65.08170 | 28.54111 | 23078 ft | 411 kts | 7° |
| 2026-05-04 08:44 | 65.10893 | 28.55948 | 22558 ft | 405 kts | 7° |
| 2026-05-04 08:44 | 65.13599 | 28.57772 | 22027 ft | 402 kts | 7° |
| 2026-05-04 08:46 | 65.31912 | 28.70206 | 18375 ft | 379 kts | 9° |
| 2026-05-04 08:46 | 65.34432 | 28.71932 | 17853 ft | 376 kts | 9° |
| 2026-05-04 08:46 | 65.36929 | 28.73647 | 17391 ft | 370 kts | 9° |
| 2026-05-04 08:46 | 65.39395 | 28.75343 | 16898 ft | 368 kts | 10° |
| 2026-05-04 08:47 | 65.41845 | 28.77028 | 16412 ft | 365 kts | 10° |
| 2026-05-04 08:47 | 65.44274 | 28.78704 | 15933 ft | 361 kts | 10° |
| 2026-05-04 08:47 | 65.46678 | 28.80366 | 15457 ft | 358 kts | 11° |
| 2026-05-04 08:47 | 65.49058 | 28.82014 | 14957 ft | 353 kts | 11° |
| 2026-05-04 08:48 | 65.51400 | 28.83648 | 14506 ft | 348 kts | 11° |
| 2026-05-04 08:48 | 65.53707 | 28.85251 | 14047 ft | 343 kts | 12° |
| 2026-05-04 08:48 | 65.55947 | 28.86816 | 13591 ft | 336 kts | 12° |
| 2026-05-04 08:48 | 65.58166 | 28.88367 | 13152 ft | 327 kts | 12° |
| 2026-05-04 08:49 | 65.60326 | 28.89876 | 12739 ft | 320 kts | 12° |
| 2026-05-04 08:50 | 65.72551 | 28.98488 | 10280 ft | 297 kts | 14° |
| 2026-05-04 08:50 | 65.74525 | 28.99913 | 9926 ft | 296 kts | 14° |
| 2026-05-04 08:51 | 65.76494 | 29.01320 | 9698 ft | 290 kts | 14° |
| 2026-05-04 08:51 | 65.78462 | 29.02535 | 9242 ft | 294 kts | 2° |
| 2026-05-04 08:51 | 65.80418 | 29.01791 | 9264 ft | 283 kts | 339° |
| 2026-05-04 08:51 | 65.82285 | 28.99954 | 8648 ft | 297 kts | 333° |
| 2026-05-04 08:52 | 65.84184 | 28.97821 | 7964 ft | 301 kts | 333° |
| 2026-05-04 08:52 | 65.86093 | 28.95843 | 7556 ft | 295 kts | 336° |
| 2026-05-04 08:52 | 65.87985 | 28.94040 | 7184 ft | 289 kts | 336° |
| 2026-05-04 08:52 | 65.89843 | 28.92269 | 6768 ft | 285 kts | 336° |
| 2026-05-04 08:53 | 65.91661 | 28.90498 | 6552 ft | 274 kts | 335° |
| 2026-05-04 08:54 | 66.02778 | 28.79587 | 4406 ft | 228 kts | 335° |
| 2026-05-04 08:55 | 66.04343 | 28.78951 | 4024 ft | 229 kts | 6° |
| 2026-05-04 08:55 | 66.05745 | 28.80526 | 3768 ft | 220 kts | 41° |
| 2026-05-04 08:55 | 66.06833 | 28.83039 | 3508 ft | 210 kts | 46° |
| 2026-05-04 08:55 | 66.07861 | 28.85482 | 3334 ft | 201 kts | 45° |
| 2026-05-04 08:57 | 66.06642 | 29.02461 | 2979 ft | 174 kts | 135° |
| 2026-05-04 09:01 | 65.98412 | 29.24851 | 873 ft | 19 kts | 140° |
| 2026-05-04 09:01 | 65.98370 | 29.24987 | 872 ft | 5 kts | 59° |
| 2026-05-04 09:01 | 65.98408 | 29.24926 | 872 ft | 10 kts | 310° |
| 2026-05-04 09:01 | 65.98475 | 29.24730 | 874 ft | 20 kts | 310° |
| 2026-05-04 09:02 | 65.98592 | 29.24394 | 876 ft | 32 kts | 311° |
| 2026-05-04 09:02 | 65.98760 | 29.23928 | 874 ft | 39 kts | 312° |
| 2026-05-04 09:02 | 65.98945 | 29.23427 | 871 ft | 40 kts | 312° |
| 2026-05-04 09:02 | 65.99134 | 29.22914 | 871 ft | 41 kts | 312° |
| 2026-05-04 09:03 | 65.99316 | 29.22426 | 873 ft | 35 kts | 313° |
| 2026-05-04 09:03 | 65.99421 | 29.22203 | 874 ft | 16 kts | 355° |
| 2026-05-04 09:03 | 65.99507 | 29.22354 | 877 ft | 13 kts | 41° |
| 2026-05-04 09:03 | 65.99550 | 29.22487 | 878 ft | 6 kts | 77° |
| 2026-05-04 09:04 | 65.99556 | 29.22543 | 878 ft | 1 kts | 75° |
| 2026-05-04 09:04 | 65.99556 | 29.22544 | 878 ft | 0 kts | 75° |